Time;durP1;ratioP1;P1;durP2;ratioP2;P2;SDS_P1;SDS_P2;PMS_P1;PMS_P2;Temp;Humidity;BMP_temperature;BMP_pressure;BME280_temperature;BME280_humidity;BME280_pressure;Samples;Min_cycle;Max_cycle;Signal;HPM_P1;HPM_P2
2022/09/05 00:00:59;;;;;;;;;;;21.40;81.90;;;;;;5093726;28;19915;-55
2022/09/05 00:03:35;;;;;;;;;;;21.40;81.90;;;;;;5093315;28;19974;-55
2022/09/05 00:06:10;;;;;;;;;;;21.40;81.90;;;;;;5093512;28;19956;-54
2022/09/05 00:08:49;;;;;;;;;;;21.40;81.80;;;;;;5093756;28;19970;-53
2022/09/05 00:11:21;;;;;;;;;;;21.40;81.80;;;;;;5092545;28;19950;-56
2022/09/05 00:14:05;;;;;;;;;;;21.40;81.80;;;;;;5093500;28;19912;-55
2022/09/05 00:16:52;;;;;;;;;;;21.40;81.80;;;;;;5097656;28;19942;-52
2022/09/05 00:19:29;;;;;;;;;;;21.40;81.80;;;;;;5097516;28;19931;-55
2022/09/05 00:21:55;;;;;;;;;;;21.40;81.80;;;;;;5096245;28;19908;-52
2022/09/05 00:24:30;;;;;;;;;;;21.40;81.80;;;;;;5097089;28;19908;-53
2022/09/05 00:27:14;;;;;;;;;;;21.40;81.80;;;;;;5097505;28;19991;-54
2022/09/05 00:29:46;;;;;;;;;;;21.40;81.80;;;;;;5097036;28;20010;-55
2022/09/05 00:32:14;;;;;;;;;;;21.40;81.80;;;;;;5097202;28;20308;-54
2022/09/05 00:34:59;;;;;;;;;;;21.40;82.40;;;;;;5095960;28;19938;-54
2022/09/05 00:37:44;;;;;;;;;;;21.40;82.00;;;;;;5097163;28;20003;-52
2022/09/05 00:40:15;;;;;;;;;;;21.40;81.90;;;;;;5096823;28;19977;-54
2022/09/05 00:42:42;;;;;;;;;;;21.30;81.90;;;;;;5096752;28;19908;-54
2022/09/05 00:45:09;;;;;;;;;;;21.40;81.90;;;;;;5095806;28;19970;-53
2022/09/05 00:47:34;;;;;;;;;;;21.40;81.90;;;;;;5096623;28;19912;-55
2022/09/05 00:50:02;;;;;;;;;;;21.40;81.80;;;;;;5095223;28;19912;-54
2022/09/05 00:52:37;;;;;;;;;;;21.30;81.90;;;;;;5097193;28;19919;-52
2022/09/05 00:55:06;;;;;;;;;;;21.30;81.90;;;;;;5096794;28;20250;-54
2022/09/05 00:57:48;;;;;;;;;;;21.30;81.90;;;;;;5096684;28;19908;-52
2022/09/05 01:00:15;;;;;;;;;;;21.30;81.90;;;;;;5096681;28;19908;-55
2022/09/05 01:02:50;;;;;;;;;;;21.40;81.90;;;;;;5095168;28;19955;-54
2022/09/05 01:05:40;;;;;;;;;;;21.30;81.90;;;;;;5096572;28;19908;-50
2022/09/05 01:08:05;;;;;;;;;;;21.40;81.90;;;;;;5096550;28;19916;-54
2022/09/05 01:10:33;;;;;;;;;;;21.40;81.90;;;;;;5096546;28;19912;-52
2022/09/05 01:13:18;;;;;;;;;;;21.30;81.90;;;;;;5095150;28;19991;-56
2022/09/05 01:15:48;;;;;;;;;;;21.30;81.90;;;;;;5095347;28;20289;-53
2022/09/05 01:18:19;;;;;;;;;;;21.30;81.90;;;;;;5096630;28;19908;-55
2022/09/05 01:20:53;;;;;;;;;;;21.40;81.90;;;;;;5096258;28;19913;-51
2022/09/05 01:23:19;;;;;;;;;;;21.30;81.90;;;;;;5096537;28;19954;-53
2022/09/05 01:26:04;;;;;;;;;;;21.40;82.00;;;;;;5095765;28;20270;-50
2022/09/05 01:28:34;;;;;;;;;;;21.30;81.90;;;;;;5095248;28;19923;-55
2022/09/05 01:31:08;;;;;;;;;;;21.30;81.90;;;;;;5096046;28;19916;-55
2022/09/05 01:33:49;;;;;;;;;;;21.30;81.90;;;;;;5096116;28;19919;-53
2022/09/05 01:36:33;;;;;;;;;;;21.30;81.90;;;;;;5096025;28;19958;-54
2022/09/05 01:39:04;;;;;;;;;;;21.30;81.90;;;;;;5094585;28;19908;-54
2022/09/05 01:41:35;;;;;;;;;;;21.30;81.90;;;;;;5094829;28;20321;-53
2022/09/05 01:44:01;;;;;;;;;;;21.30;81.90;;;;;;5095555;28;20394;-51
2022/09/05 01:46:27;;;;;;;;;;;21.30;81.90;;;;;;5095720;28;19958;-53
2022/09/05 01:49:13;;;;;;;;;;;21.30;82.50;;;;;;5095802;28;20379;-56
2022/09/05 01:51:58;;;;;;;;;;;21.30;82.00;;;;;;5095362;28;19912;-54
2022/09/05 01:54:33;;;;;;;;;;;21.30;81.90;;;;;;5073859;28;20363;-54
2022/09/05 01:57:06;;;;;;;;;;;21.30;81.90;;;;;;5095173;28;20340;-54
2022/09/05 01:59:50;;;;;;;;;;;21.30;82.00;;;;;;5095212;28;20367;-55
2022/09/05 02:02:21;;;;;;;;;;;21.30;82.00;;;;;;5095259;28;19920;-54
2022/09/05 02:05:13;;;;;;;;;;;21.30;82.00;;;;;;5095344;28;19915;-54
2022/09/05 02:07:47;;;;;;;;;;;21.30;81.90;;;;;;5070643;28;19908;-55
2022/09/05 02:10:32;;;;;;;;;;;21.30;82.00;;;;;;5095192;28;19912;-53
2022/09/05 02:13:16;;;;;;;;;;;21.30;82.00;;;;;;5095218;28;20319;-50
2022/09/05 02:15:51;;;;;;;;;;;21.30;82.00;;;;;;5095165;28;19908;-53
2022/09/05 02:18:21;;;;;;;;;;;21.30;82.00;;;;;;5094793;28;19909;-55
2022/09/05 02:20:50;;;;;;;;;;;21.30;82.00;;;;;;5095365;28;19950;-53
2022/09/05 02:23:16;;;;;;;;;;;21.30;82.50;;;;;;5094729;28;20333;-55
2022/09/05 02:25:44;;;;;;;;;;;21.30;82.00;;;;;;5094980;28;19958;-50
2022/09/05 02:28:12;;;;;;;;;;;21.30;82.00;;;;;;5094870;28;19912;-54
2022/09/05 02:30:43;;;;;;;;;;;21.30;82.00;;;;;;5094692;28;20263;-55
2022/09/05 02:33:14;;;;;;;;;;;21.30;82.00;;;;;;5094610;28;20009;-54
2022/09/05 02:35:44;;;;;;;;;;;21.30;82.00;;;;;;5094630;28;19919;-54
2022/09/05 02:38:21;;;;;;;;;;;21.30;82.00;;;;;;5094350;28;19920;-51
2022/09/05 02:41:07;;;;;;;;;;;21.30;82.10;;;;;;5093552;28;19912;-55
2022/09/05 02:43:38;;;;;;;;;;;21.30;82.10;;;;;;5094367;28;19908;-55
2022/09/05 02:46:13;;;;;;;;;;;21.30;82.10;;;;;;5093475;28;19943;-53
2022/09/05 02:48:55;;;;;;;;;;;21.30;82.10;;;;;;5094579;28;19915;-51
2022/09/05 02:51:26;;;;;;;;;;;21.30;82.10;;;;;;5094870;28;19912;-51
2022/09/05 02:53:55;;;;;;;;;;;21.30;82.10;;;;;;5094537;28;19939;-56
2022/09/05 02:56:44;;;;;;;;;;;21.30;82.10;;;;;;5093202;28;19908;-55
2022/09/05 02:59:27;;;;;;;;;;;21.30;82.10;;;;;;5094947;28;20429;-53
2022/09/05 03:01:53;;;;;;;;;;;21.30;82.10;;;;;;5094171;28;20377;-54
2022/09/05 03:04:18;;;;;;;;;;;21.30;82.10;;;;;;5094140;28;19908;-55
2022/09/05 03:07:02;;;;;;;;;;;21.30;82.00;;;;;;5094135;28;20003;-56
2022/09/05 03:09:34;;;;;;;;;;;21.30;82.10;;;;;;5094198;28;20339;-52
2022/09/05 03:12:13;;;;;;;;;;;21.30;82.10;;;;;;5094139;28;20028;-55
2022/09/05 03:14:57;;;;;;;;;;;21.30;82.10;;;;;;5094004;28;19908;-52
2022/09/05 03:17:22;;;;;;;;;;;21.30;82.10;;;;;;5092900;28;19916;-52
2022/09/05 03:20:06;;;;;;;;;;;21.30;82.10;;;;;;5094165;28;19912;-55
2022/09/05 03:22:32;;;;;;;;;;;21.30;82.10;;;;;;5094157;28;19909;-51
2022/09/05 03:24:57;;;;;;;;;;;21.30;82.00;;;;;;5093850;28;19915;-55
2022/09/05 03:27:22;;;;;;;;;;;21.30;82.00;;;;;;5092797;28;19944;-53
2022/09/05 03:30:01;;;;;;;;;;;21.30;82.00;;;;;;5092430;28;19912;-56
2022/09/05 03:32:47;;;;;;;;;;;21.30;82.10;;;;;;5093856;28;19912;-51
2022/09/05 03:35:16;;;;;;;;;;;21.30;82.10;;;;;;5093940;28;20017;-55
2022/09/05 03:38:10;;;;;;;;;;;21.30;82.10;;;;;;5094328;28;20266;-55
2022/09/05 03:40:35;;;;;;;;;;;21.30;82.10;;;;;;5093799;28;19915;-54
2022/09/05 03:43:07;;;;;;;;;;;21.30;82.00;;;;;;5093980;28;19934;-53
2022/09/05 03:45:49;;;;;;;;;;;21.30;82.10;;;;;;5093615;28;19908;-50
2022/09/05 03:48:14;;;;;;;;;;;21.30;82.10;;;;;;5095744;28;19958;-52
2022/09/05 03:50:46;;;;;;;;;;;21.30;82.10;;;;;;5098288;28;19951;-50
2022/09/05 03:53:24;;;;;;;;;;;21.30;82.10;;;;;;5097513;28;19908;-54
2022/09/05 03:55:52;;;;;;;;;;;21.30;82.10;;;;;;5098191;28;19908;-53
2022/09/05 03:58:28;;;;;;;;;;;21.30;82.10;;;;;;5097442;28;19908;-56
2022/09/05 04:01:06;;;;;;;;;;;21.30;82.10;;;;;;5097465;28;19908;-54
2022/09/05 04:03:37;;;;;;;;;;;21.30;82.10;;;;;;5097852;28;20271;-55
2022/09/05 04:06:03;;;;;;;;;;;21.30;82.10;;;;;;5097754;28;19908;-54
2022/09/05 04:08:47;;;;;;;;;;;21.30;82.10;;;;;;5097727;28;20274;-51
2022/09/05 04:11:15;;;;;;;;;;;21.30;82.10;;;;;;5096296;28;20365;-55
2022/09/05 04:14:01;;;;;;;;;;;21.30;82.10;;;;;;5097329;28;19912;-54
2022/09/05 04:16:28;;;;;;;;;;;21.30;82.10;;;;;;5097714;28;19947;-53
2022/09/05 04:19:09;;;;;;;;;;;21.30;82.10;;;;;;5096979;28;19908;-55
2022/09/05 04:21:43;;;;;;;;;;;21.30;82.10;;;;;;5096853;28;20380;-54
2022/09/05 04:24:16;;;;;;;;;;;21.20;82.10;;;;;;5096010;28;20266;-54
2022/09/05 04:26:42;;;;;;;;;;;21.20;82.10;;;;;;5097289;28;19908;-56
2022/09/05 04:29:21;;;;;;;;;;;21.20;82.10;;;;;;5096659;28;20323;-51
2022/09/05 04:31:52;;;;;;;;;;;21.20;82.10;;;;;;5096680;28;19931;-56
2022/09/05 04:34:27;;;;;;;;;;;21.30;82.10;;;;;;5097204;28;19931;-54
2022/09/05 04:37:00;;;;;;;;;;;21.30;82.10;;;;;;5096692;28;19908;-54
2022/09/05 04:39:26;;;;;;;;;;;21.20;82.10;;;;;;5097188;28;19908;-54
2022/09/05 04:41:57;;;;;;;;;;;21.20;82.10;;;;;;5096853;28;19908;-55
2022/09/05 04:44:29;;;;;;;;;;;21.20;82.10;;;;;;5096489;28;19956;-55
2022/09/05 04:47:01;;;;;;;;;;;21.20;82.10;;;;;;5096467;28;20334;-55
2022/09/05 04:49:32;;;;;;;;;;;21.20;82.10;;;;;;5096477;28;19912;-54
2022/09/05 04:52:29;;;;;;;;;;;21.20;82.10;;;;;;5096634;28;19957;-54
2022/09/05 04:54:58;;;;;;;;;;;21.20;82.10;;;;;;5073019;28;19908;-51
2022/09/05 04:57:28;;;;;;;;;;;21.30;82.10;;;;;;5096774;28;20275;-55
2022/09/05 05:00:05;;;;;;;;;;;21.30;82.10;;;;;;5094288;28;20286;-50
2022/09/05 05:03:00;;;;;;;;;;;21.20;82.10;;;;;;5096297;28;20013;-53
2022/09/05 05:05:31;;;;;;;;;;;21.20;82.10;;;;;;5087153;28;19931;-55
2022/09/05 05:08:02;;;;;;;;;;;21.30;82.10;;;;;;5096096;28;20003;-52
2022/09/05 05:10:46;;;;;;;;;;;21.20;82.20;;;;;;5096514;28;19918;-55
2022/09/05 05:13:14;;;;;;;;;;;21.20;82.10;;;;;;5095923;28;19912;-54
2022/09/05 05:15:44;;;;;;;;;;;21.20;82.10;;;;;;5095930;28;19912;-53
2022/09/05 05:18:09;;;;;;;;;;;21.20;82.20;;;;;;5095791;28;19909;-55
2022/09/05 05:20:42;;;;;;;;;;;21.20;82.20;;;;;;5095783;28;19908;-53
2022/09/05 05:23:13;;;;;;;;;;;21.20;82.20;;;;;;5095990;28;19952;-53
2022/09/05 05:25:45;;;;;;;;;;;21.30;82.20;;;;;;5094762;28;20266;-49
2022/09/05 05:28:10;;;;;;;;;;;21.20;82.20;;;;;;5095363;28;19912;-54
2022/09/05 05:30:36;;;;;;;;;;;21.20;82.20;;;;;;5095332;28;19912;-53
2022/09/05 05:33:08;;;;;;;;;;;21.20;82.20;;;;;;5095658;28;20010;-53
2022/09/05 05:35:33;;;;;;;;;;;21.20;82.20;;;;;;5095722;28;19930;-53
2022/09/05 05:38:05;;;;;;;;;;;21.20;82.10;;;;;;5095238;28;19916;-52
2022/09/05 05:40:31;;;;;;;;;;;21.20;82.10;;;;;;5095257;28;20460;-54
2022/09/05 05:43:16;;;;;;;;;;;21.30;82.10;;;;;;5095510;28;19908;-55
2022/09/05 05:45:41;;;;;;;;;;;21.20;82.10;;;;;;5094988;28;20346;-55
2022/09/05 05:48:16;;;;;;;;;;;21.30;82.10;;;;;;5095662;28;19915;-54
2022/09/05 05:50:48;;;;;;;;;;;21.20;82.10;;;;;;5095320;28;19930;-53
2022/09/05 05:53:17;;;;;;;;;;;21.20;82.20;;;;;;5093978;28;20397;-54
2022/09/05 05:55:46;;;;;;;;;;;21.20;82.10;;;;;;5095151;28;19976;-54
2022/09/05 05:58:14;;;;;;;;;;;21.20;82.10;;;;;;5094509;28;19908;-55
2022/09/05 06:00:40;;;;;;;;;;;21.30;82.20;;;;;;5095459;28;19912;-52
2022/09/05 06:03:24;;;;;;;;;;;21.20;82.20;;;;;;5094775;28;20270;-51
2022/09/05 06:06:08;;;;;;;;;;;21.20;82.10;;;;;;5094368;28;19916;-54
2022/09/05 06:08:38;;;;;;;;;;;21.30;82.20;;;;;;5094920;28;19977;-54
2022/09/05 06:11:11;;;;;;;;;;;21.30;82.10;;;;;;5093808;28;19914;-52
2022/09/05 06:13:44;;;;;;;;;;;21.20;82.20;;;;;;5093571;28;20377;-53
2022/09/05 06:16:12;;;;;;;;;;;21.30;82.20;;;;;;5094688;28;20473;-49
2022/09/05 06:18:44;;;;;;;;;;;21.30;82.20;;;;;;5094451;28;19916;-49
2022/09/05 06:21:18;;;;;;;;;;;21.30;82.20;;;;;;5093384;28;19945;-52
2022/09/05 06:23:56;;;;;;;;;;;21.30;82.20;;;;;;5095039;28;19924;-52
2022/09/05 06:26:36;;;;;;;;;;;21.30;82.20;;;;;;5094795;28;19977;-52
2022/09/05 06:29:11;;;;;;;;;;;21.30;82.10;;;;;;5094543;28;19912;-52
2022/09/05 06:31:45;;;;;;;;;;;21.30;82.20;;;;;;5094475;28;19912;-51
2022/09/05 06:34:29;;;;;;;;;;;21.30;82.20;;;;;;5094526;28;19908;-52
2022/09/05 06:37:03;;;;;;;;;;;21.30;82.10;;;;;;5094114;28;19908;-51
2022/09/05 06:39:47;;;;;;;;;;;21.30;82.10;;;;;;5093221;28;19999;-53
2022/09/05 06:42:13;;;;;;;;;;;21.30;82.20;;;;;;5094104;28;20342;-52
2022/09/05 06:44:39;;;;;;;;;;;21.30;82.20;;;;;;5094402;28;19923;-54
2022/09/05 06:47:11;;;;;;;;;;;21.30;82.30;;;;;;5094404;28;20416;-54
2022/09/05 06:49:46;;;;;;;;;;;21.30;82.20;;;;;;5094056;28;20274;-55
2022/09/05 06:52:25;;;;;;;;;;;21.30;82.20;;;;;;5093989;28;20033;-54
2022/09/05 06:54:51;;;;;;;;;;;21.30;82.20;;;;;;5094404;28;19943;-56
2022/09/05 06:57:35;;;;;;;;;;;21.30;82.20;;;;;;5093702;28;19912;-56
2022/09/05 07:00:21;;;;;;;;;;;21.30;82.20;;;;;;5093982;28;19957;-52
2022/09/05 07:03:06;;;;;;;;;;;21.30;82.20;;;;;;5092651;28;20010;-52
2022/09/05 07:05:35;;;;;;;;;;;21.30;82.20;;;;;;5092338;28;19962;-56
2022/09/05 07:08:07;;;;;;;;;;;21.30;82.20;;;;;;5094039;28;19912;-56
2022/09/05 07:10:42;;;;;;;;;;;21.30;82.20;;;;;;5094056;28;19912;-53
2022/09/05 07:13:07;;;;;;;;;;;21.30;82.30;;;;;;5092800;28;19912;-55
2022/09/05 07:15:36;;;;;;;;;;;21.30;82.20;;;;;;5093543;28;19953;-55
2022/09/05 07:18:21;;;;;;;;;;;21.30;82.20;;;;;;5093780;28;19908;-54
2022/09/05 07:20:54;;;;;;;;;;;21.30;82.20;;;;;;5093887;28;20355;-54
2022/09/05 07:23:39;;;;;;;;;;;21.30;82.20;;;;;;5092086;28;19912;-52
2022/09/05 07:26:07;;;;;;;;;;;21.30;82.20;;;;;;5093473;28;20205;-54
2022/09/05 07:28:33;;;;;;;;;;;21.30;82.20;;;;;;5092342;28;19959;-51
2022/09/05 07:31:05;;;;;;;;;;;21.30;82.20;;;;;;5093562;28;19912;-52
2022/09/05 07:33:30;;;;;;;;;;;21.30;82.20;;;;;;5093910;28;19935;-55
2022/09/05 07:36:03;;;;;;;;;;;21.30;82.20;;;;;;5093543;28;20359;-56
2022/09/05 07:38:31;;;;;;;;;;;21.30;82.20;;;;;;5093795;28;19912;-52
2022/09/05 07:41:00;;;;;;;;;;;21.30;82.20;;;;;;5094110;28;19909;-55
2022/09/05 07:43:29;;;;;;;;;;;21.30;82.20;;;;;;5092448;28;19914;-51
2022/09/05 07:46:04;;;;;;;;;;;21.30;82.20;;;;;;5093386;28;19909;-53
2022/09/05 07:48:36;;;;;;;;;;;21.30;82.20;;;;;;5093552;28;20010;-54
2022/09/05 07:51:04;;;;;;;;;;;21.30;82.20;;;;;;5093539;28;19918;-54
2022/09/05 07:53:30;;;;;;;;;;;21.30;82.20;;;;;;5093523;28;20374;-56
2022/09/05 07:55:57;;;;;;;;;;;21.30;82.20;;;;;;5093536;28;19915;-54
2022/09/05 07:58:43;;;;;;;;;;;21.30;82.20;;;;;;5093551;28;19915;-56
2022/09/05 08:01:11;;;;;;;;;;;21.30;82.20;;;;;;5092970;28;19943;-51
2022/09/05 08:03:37;;;;;;;;;;;21.30;82.10;;;;;;5093486;28;19920;-54
2022/09/05 08:06:04;;;;;;;;;;;21.30;82.10;;;;;;5093312;28;20254;-54
2022/09/05 08:08:32;;;;;;;;;;;21.30;82.10;;;;;;5093355;28;19912;-55
2022/09/05 08:11:06;;;;;;;;;;;21.30;82.10;;;;;;5092987;28;20286;-49
2022/09/05 08:13:44;;;;;;;;;;;21.30;82.10;;;;;;5092120;28;20431;-53
2022/09/05 08:16:11;;;;;;;;;;;21.30;82.10;;;;;;5093319;28;19912;-53
2022/09/05 08:18:44;;;;;;;;;;;21.30;82.10;;;;;;5093391;28;20239;-55
2022/09/05 08:21:22;;;;;;;;;;;21.30;82.20;;;;;;5092720;28;19920;-56
2022/09/05 08:24:10;;;;;;;;;;;21.30;82.10;;;;;;5092891;28;19917;-57
2022/09/05 08:26:38;;;;;;;;;;;21.30;82.10;;;;;;5091628;28;19948;-56
2022/09/05 08:29:10;;;;;;;;;;;21.30;82.10;;;;;;5092837;28;19966;-51
2022/09/05 08:31:52;;;;;;;;;;;21.30;82.10;;;;;;5091975;28;19912;-54
2022/09/05 08:34:22;;;;;;;;;;;21.30;82.10;;;;;;5092228;28;19915;-53
2022/09/05 08:36:48;;;;;;;;;;;21.30;82.10;;;;;;5096731;28;19912;-53
2022/09/05 08:39:16;;;;;;;;;;;21.30;82.10;;;;;;5096395;28;19969;-54
2022/09/05 08:41:45;;;;;;;;;;;21.30;82.10;;;;;;5096183;28;20002;-51
2022/09/05 08:44:19;;;;;;;;;;;21.30;82.10;;;;;;5096192;28;20359;-54
2022/09/05 08:47:01;;;;;;;;;;;21.40;82.10;;;;;;5096438;28;19931;-55
2022/09/05 08:49:36;;;;;;;;;;;21.40;82.10;;;;;;5096101;28;20366;-55
2022/09/05 08:52:12;;;;;;;;;;;21.40;82.10;;;;;;5096601;28;20003;-54
2022/09/05 08:54:53;;;;;;;;;;;21.40;82.20;;;;;;5096340;28;19916;-52
2022/09/05 08:57:37;;;;;;;;;;;21.30;82.10;;;;;;5095091;28;19908;-55
2022/09/05 09:00:06;;;;;;;;;;;21.40;82.10;;;;;;5094948;28;20299;-51
2022/09/05 09:02:40;;;;;;;;;;;21.40;82.10;;;;;;5094651;28;20387;-53
2022/09/05 09:05:06;;;;;;;;;;;21.40;82.10;;;;;;5094868;28;19917;-54
2022/09/05 09:07:50;;;;;;;;;;;21.40;82.20;;;;;;5096376;28;20278;-55
2022/09/05 09:10:34;;;;;;;;;;;21.40;82.20;;;;;;5096164;28;19912;-52
2022/09/05 09:13:00;;;;;;;;;;;21.40;82.10;;;;;;5096234;28;19932;-54
2022/09/05 09:15:31;;;;;;;;;;;21.40;82.10;;;;;;5094839;28;19964;-50
2022/09/05 09:17:57;;;;;;;;;;;21.40;82.10;;;;;;5095849;28;19912;-55
2022/09/05 09:20:41;;;;;;;;;;;21.40;82.10;;;;;;5094639;28;19915;-52
2022/09/05 09:23:10;;;;;;;;;;;21.40;82.10;;;;;;5094719;28;20262;-51
2022/09/05 09:25:44;;;;;;;;;;;21.40;82.10;;;;;;5095521;28;19994;-55
2022/09/05 09:28:10;;;;;;;;;;;21.40;82.10;;;;;;5096176;28;19916;-55
2022/09/05 09:30:40;;;;;;;;;;;21.40;82.10;;;;;;5095867;28;19912;-50
2022/09/05 09:33:06;;;;;;;;;;;21.40;82.10;;;;;;5095385;28;20386;-53
2022/09/05 09:35:31;;;;;;;;;;;21.40;82.10;;;;;;5095677;28;19915;-55
2022/09/05 09:38:08;;;;;;;;;;;21.40;82.10;;;;;;5095294;28;19908;-49
2022/09/05 09:40:45;;;;;;;;;;;21.40;82.10;;;;;;5096234;28;19947;-52
2022/09/05 09:43:30;;;;;;;;;;;21.40;82.10;;;;;;5094096;28;19961;-51
2022/09/05 09:46:08;;;;;;;;;;;21.40;82.10;;;;;;5095215;28;19908;-55
2022/09/05 09:48:56;;;;;;;;;;;21.40;82.10;;;;;;5095173;28;19915;-52
2022/09/05 09:51:30;;;;;;;;;;;21.40;82.10;;;;;;5095412;28;19962;-54
2022/09/05 09:54:05;;;;;;;;;;;21.40;82.10;;;;;;5095179;28;19969;-55
2022/09/05 09:56:49;;;;;;;;;;;21.40;82.10;;;;;;5095360;28;19912;-53
2022/09/05 09:59:24;;;;;;;;;;;21.40;82.10;;;;;;5094136;28;19950;-51
2022/09/05 10:02:14;;;;;;;;;;;21.40;82.10;;;;;;5095059;28;19940;-53
2022/09/05 10:04:43;;;;;;;;;;;21.40;82.10;;;;;;5093947;28;19908;-54
2022/09/05 10:07:27;;;;;;;;;;;21.40;82.10;;;;;;5094664;28;19912;-51
2022/09/05 10:09:53;;;;;;;;;;;21.40;82.10;;;;;;5094772;28;19912;-51
2022/09/05 10:12:21;;;;;;;;;;;21.40;82.10;;;;;;5093842;28;19912;-53
2022/09/05 10:15:01;;;;;;;;;;;21.40;82.10;;;;;;5094820;28;19908;-51
2022/09/05 10:17:26;;;;;;;;;;;21.40;82.10;;;;;;5094346;28;19908;-55
2022/09/05 10:19:52;;;;;;;;;;;21.40;82.10;;;;;;5094881;28;19909;-56
2022/09/05 10:22:36;;;;;;;;;;;21.40;82.10;;;;;;5094653;28;20358;-53
2022/09/05 10:25:14;;;;;;;;;;;21.40;82.10;;;;;;5094589;28;19950;-53
2022/09/05 10:27:48;;;;;;;;;;;21.40;82.10;;;;;;5093433;28;19912;-54
2022/09/05 10:30:19;;;;;;;;;;;21.40;82.10;;;;;;5093271;28;19912;-49
2022/09/05 10:33:00;;;;;;;;;;;21.40;82.10;;;;;;5094663;28;19912;-54
2022/09/05 10:35:36;;;;;;;;;;;21.40;82.20;;;;;;5092931;28;19912;-51
2022/09/05 10:38:10;;;;;;;;;;;21.40;82.10;;;;;;5094451;28;19908;-52
2022/09/05 10:40:37;;;;;;;;;;;21.40;82.10;;;;;;5093170;28;19915;-53
2022/09/05 10:43:12;;;;;;;;;;;21.40;82.20;;;;;;5093193;28;20030;-54
2022/09/05 10:45:52;;;;;;;;;;;21.40;82.20;;;;;;5094406;28;19962;-52
2022/09/05 10:48:35;;;;;;;;;;;21.40;82.20;;;;;;5093989;28;20362;-56
2022/09/05 10:51:05;;;;;;;;;;;21.40;82.20;;;;;;5094237;28;19922;-56
2022/09/05 10:53:37;;;;;;;;;;;21.40;82.20;;;;;;5094796;28;19962;-53
2022/09/05 10:56:05;;;;;;;;;;;21.40;82.20;;;;;;5093970;28;19931;-53
2022/09/05 10:58:42;;;;;;;;;;;21.40;82.20;;;;;;5092271;28;19912;-51
2022/09/05 11:01:16;;;;;;;;;;;21.40;82.20;;;;;;5094086;28;19916;-56
2022/09/05 11:03:44;;;;;;;;;;;21.40;82.20;;;;;;5094259;28;19982;-54
2022/09/05 11:06:12;;;;;;;;;;;21.40;82.20;;;;;;5094177;28;20023;-53
2022/09/05 11:08:40;;;;;;;;;;;21.40;82.20;;;;;;5092996;28;20347;-50
2022/09/05 11:11:06;;;;;;;;;;;21.40;82.20;;;;;;5094188;28;19919;-50
2022/09/05 11:13:53;;;;;;;;;;;21.40;82.20;;;;;;5093669;28;19999;-54
2022/09/05 11:16:27;;;;;;;;;;;21.40;82.20;;;;;;5094382;28;20044;-54
2022/09/05 11:18:52;;;;;;;;;;;21.40;82.20;;;;;;5093782;28;20381;-53
2022/09/05 11:21:21;;;;;;;;;;;21.40;82.20;;;;;;5092742;28;19908;-54
2022/09/05 11:23:52;;;;;;;;;;;21.40;82.20;;;;;;5094164;28;20003;-54
2022/09/05 11:26:25;;;;;;;;;;;21.40;82.20;;;;;;5094248;28;19909;-52
2022/09/05 11:28:56;;;;;;;;;;;21.40;82.20;;;;;;5093838;28;20254;-55
2022/09/05 11:31:26;;;;;;;;;;;21.40;82.10;;;;;;5093758;28;19912;-54
2022/09/05 11:33:58;;;;;;;;;;;21.40;82.20;;;;;;5092538;28;20339;-53
2022/09/05 11:36:37;;;;;;;;;;;21.40;82.20;;;;;;5093950;28;19908;-53
2022/09/05 11:39:14;;;;;;;;;;;21.40;82.20;;;;;;5093864;28;20003;-53
2022/09/05 11:41:58;;;;;;;;;;;21.40;82.20;;;;;;5093833;28;19952;-54
2022/09/05 11:44:46;;;;;;;;;;;21.40;82.20;;;;;;5094309;28;19908;-53
2022/09/05 11:47:21;;;;;;;;;;;21.40;82.20;;;;;;5093690;28;19916;-53
2022/09/05 11:50:15;;;;;;;;;;;21.40;82.20;;;;;;5093307;28;20319;-55
2022/09/05 11:53:16;;;;;;;;;;;21.40;82.20;;;;;;5084491;28;19912;-50
2022/09/05 11:55:49;;;;;;;;;;;21.40;82.20;;;;;;5051071;28;20418;-55
2022/09/05 11:58:33;;;;;;;;;;;21.40;82.20;;;;;;5087281;28;19908;-55
2022/09/05 12:00:58;;;;;;;;;;;21.40;82.20;;;;;;5093302;28;19908;-53
2022/09/05 12:03:31;;;;;;;;;;;21.40;82.20;;;;;;5093594;28;19927;-56
2022/09/05 12:05:56;;;;;;;;;;;21.40;82.20;;;;;;5093932;28;19908;-50
2022/09/05 12:08:21;;;;;;;;;;;21.40;82.20;;;;;;5092731;28;19909;-53
2022/09/05 12:10:59;;;;;;;;;;;21.40;82.20;;;;;;5097309;28;20437;-53
2022/09/05 12:13:25;;;;;;;;;;;21.40;82.20;;;;;;5097213;28;19915;-54
2022/09/05 12:15:51;;;;;;;;;;;21.40;82.30;;;;;;5095964;28;20279;-55
2022/09/05 12:18:24;;;;;;;;;;;21.40;82.30;;;;;;5097129;28;19954;-54
2022/09/05 12:20:57;;;;;;;;;;;21.40;82.30;;;;;;5096815;28;19947;-52
2022/09/05 12:23:30;;;;;;;;;;;21.40;82.30;;;;;;5095955;28;19998;-55
2022/09/05 12:26:19;;;;;;;;;;;21.40;82.30;;;;;;5097210;28;19954;-53
2022/09/05 12:28:45;;;;;;;;;;;21.40;82.80;;;;;;5076869;28;19950;-53
2022/09/05 12:31:16;;;;;;;;;;;21.40;82.30;;;;;;5095730;28;19920;-56
2022/09/05 12:33:44;;;;;;;;;;;21.40;82.30;;;;;;5097376;28;19908;-54
2022/09/05 12:36:12;;;;;;;;;;;21.40;82.20;;;;;;5096702;28;19915;-53
2022/09/05 12:38:46;;;;;;;;;;;21.40;82.30;;;;;;5096906;28;19908;-52
2022/09/05 12:41:17;;;;;;;;;;;21.40;82.30;;;;;;5096903;28;19915;-55
2022/09/05 12:44:10;;;;;;;;;;;21.40;82.20;;;;;;5096498;28;19908;-55
2022/09/05 12:46:45;;;;;;;;;;;21.40;82.20;;;;;;5080352;28;19911;-52
2022/09/05 12:49:32;;;;;;;;;;;21.40;82.20;;;;;;5096355;28;20351;-57
2022/09/05 12:52:05;;;;;;;;;;;21.40;82.30;;;;;;5096940;28;19920;-55
2022/09/05 12:54:43;;;;;;;;;;;21.40;82.20;;;;;;5096280;28;20347;-56
2022/09/05 12:57:11;;;;;;;;;;;21.40;82.20;;;;;;5096222;28;20278;-55
2022/09/05 12:59:39;;;;;;;;;;;21.40;82.20;;;;;;5094993;28;19915;-54
2022/09/05 13:02:07;;;;;;;;;;;21.40;82.20;;;;;;5096228;28;19920;-55
2022/09/05 13:04:35;;;;;;;;;;;21.40;82.30;;;;;;5096619;28;20006;-52
2022/09/05 13:07:01;;;;;;;;;;;21.40;82.30;;;;;;5096129;28;20234;-54
2022/09/05 13:09:35;;;;;;;;;;;21.40;82.30;;;;;;5096253;28;20007;-56
2022/09/05 13:12:04;;;;;;;;;;;21.40;82.30;;;;;;5096383;28;19986;-53
2022/09/05 13:14:35;;;;;;;;;;;21.40;82.30;;;;;;5095666;28;20267;-53
2022/09/05 13:17:04;;;;;;;;;;;21.40;82.30;;;;;;5094807;28;19931;-57
2022/09/05 13:19:39;;;;;;;;;;;21.40;82.30;;;;;;5095715;28;19965;-54
2022/09/05 13:22:05;;;;;;;;;;;21.40;82.30;;;;;;5095504;28;19908;-54
2022/09/05 13:24:36;;;;;;;;;;;21.40;82.30;;;;;;5095823;28;20282;-56
2022/09/05 13:27:07;;;;;;;;;;;21.40;82.30;;;;;;5095938;28;19936;-55
2022/09/05 13:29:42;;;;;;;;;;;21.40;82.30;;;;;;5095452;28;19912;-56
2022/09/05 13:32:36;;;;;;;;;;;21.40;82.30;;;;;;5094439;28;20355;-53
2022/09/05 13:35:08;;;;;;;;;;;21.40;82.30;;;;;;5080008;28;19908;-53
2022/09/05 13:37:41;;;;;;;;;;;21.40;82.30;;;;;;5095399;28;19914;-54
2022/09/05 13:40:09;;;;;;;;;;;21.40;82.30;;;;;;5095513;28;19915;-52
2022/09/05 13:42:57;;;;;;;;;;;21.50;82.30;;;;;;5094303;28;19908;-54
2022/09/05 13:45:23;;;;;;;;;;;21.40;82.30;;;;;;5085736;28;20381;-54
2022/09/05 13:47:56;;;;;;;;;;;21.50;82.30;;;;;;5095588;28;19908;-55
2022/09/05 13:50:30;;;;;;;;;;;21.40;82.30;;;;;;5094196;28;19935;-52
2022/09/05 13:52:55;;;;;;;;;;;21.40;82.30;;;;;;5094115;28;20350;-50
2022/09/05 13:55:23;;;;;;;;;;;21.40;82.20;;;;;;5095087;28;19955;-56
2022/09/05 13:57:52;;;;;;;;;;;21.50;82.30;;;;;;5095159;28;20022;-56
2022/09/05 14:00:18;;;;;;;;;;;21.40;82.30;;;;;;5095082;28;20317;-53
2022/09/05 14:03:01;;;;;;;;;;;21.40;82.30;;;;;;5095044;28;19920;-54
2022/09/05 14:05:27;;;;;;;;;;;21.40;82.30;;;;;;5094916;28;20267;-56
2022/09/05 14:08:15;;;;;;;;;;;21.40;82.30;;;;;;5094014;28;19908;-54
2022/09/05 14:10:41;;;;;;;;;;;21.50;82.30;;;;;;5093423;28;19923;-55
2022/09/05 14:13:13;;;;;;;;;;;21.50;82.30;;;;;;5094783;28;19916;-54
2022/09/05 14:15:41;;;;;;;;;;;21.40;82.30;;;;;;5093827;28;19915;-55
2022/09/05 14:18:07;;;;;;;;;;;21.50;82.30;;;;;;5094815;28;20353;-54
2022/09/05 14:23:21;;;;;;;;;;;21.40;82.30;;;;;;5095030;28;19958;-56
2022/09/05 14:25:54;;;;;;;;;;;21.40;82.30;;;;;;5094417;28;19994;-53
2022/09/05 14:28:25;;;;;;;;;;;21.50;82.30;;;;;;5094862;28;19938;-52
2022/09/05 14:30:55;;;;;;;;;;;21.40;82.30;;;;;;5094800;28;19919;-55
2022/09/05 14:33:29;;;;;;;;;;;21.50;82.30;;;;;;5093940;28;19919;-54
2022/09/05 14:36:14;;;;;;;;;;;21.50;82.30;;;;;;5094305;28;19998;-56
2022/09/05 14:38:49;;;;;;;;;;;21.50;82.30;;;;;;5094679;28;19998;-53
2022/09/05 14:41:14;;;;;;;;;;;21.50;82.30;;;;;;5094224;28;19908;-54
2022/09/05 14:43:46;;;;;;;;;;;21.50;82.30;;;;;;5094438;28;19954;-56
2022/09/05 14:46:21;;;;;;;;;;;21.40;82.30;;;;;;5094080;28;19908;-57
2022/09/05 14:48:53;;;;;;;;;;;21.50;82.30;;;;;;5093027;28;19914;-54
2022/09/05 14:51:38;;;;;;;;;;;21.50;82.30;;;;;;5094113;28;19916;-55
2022/09/05 14:54:31;;;;;;;;;;;21.50;82.30;;;;;;5094486;28;19908;-55
2022/09/05 14:56:57;;;;;;;;;;;21.50;82.30;;;;;;5090472;28;19934;-56